Time;durP1;ratioP1;P1;durP2;ratioP2;P2;SDS_P1;SDS_P2;PMS_P1;PMS_P2;Temp;Humidity;BMP_temperature;BMP_pressure;BME280_temperature;BME280_humidity;BME280_pressure;Samples;Min_cycle;Max_cycle;Signal;HPM_P1;HPM_P2
2023/05/22 00:00:39;;;;;;;4.13;3.83;;;;;;;;;;5074888;28;20462;-63
2023/05/22 00:03:07;;;;;;;4.63;3.80;;;;;;;;;;5075018;28;20448;-63
2023/05/22 00:05:37;;;;;;;3.77;3.47;;;;;;;;;;5074897;28;20547;-63
2023/05/22 00:08:04;;;;;;;3.80;3.60;;;;;;;;;;5074712;28;20490;-63
2023/05/22 00:10:31;;;;;;;4.90;3.73;;;;;;;;;;5074618;28;20546;-63
2023/05/22 00:12:58;;;;;;;3.70;3.40;;;;;;;;;;5074518;28;20973;-63
2023/05/22 00:15:25;;;;;;;6.17;3.80;;;;;;;;;;5074722;28;20450;-63
2023/05/22 00:17:52;;;;;;;3.47;3.17;;;;;;;;;;5074628;28;20546;-64
2023/05/22 00:20:20;;;;;;;6.90;3.50;;;;;;;;;;5074517;28;20450;-63
2023/05/22 00:22:48;;;;;;;4.00;3.70;;;;;;;;;;5074475;28;20549;-63
2023/05/22 00:25:16;;;;;;;3.27;3.07;;;;;;;;;;5074350;28;20458;-63
2023/05/22 00:27:42;;;;;;;3.90;3.27;;;;;;;;;;5074098;28;20618;-63
2023/05/22 00:30:10;;;;;;;3.30;2.83;;;;;;;;;;5074442;28;20503;-63
2023/05/22 00:32:37;;;;;;;3.70;3.40;;;;;;;;;;5074314;28;20549;-63
2023/05/22 00:35:04;;;;;;;3.93;3.53;;;;;;;;;;5074266;28;20897;-64
2023/05/22 00:37:32;;;;;;;3.70;3.40;;;;;;;;;;5074053;28;20448;-63
2023/05/22 00:39:59;;;;;;;3.90;3.70;;;;;;;;;;5074059;28;20508;-64
2023/05/22 00:42:26;;;;;;;4.43;3.27;;;;;;;;;;5074216;28;20444;-64
2023/05/22 00:44:53;;;;;;;7.40;3.87;;;;;;;;;;5074060;28;20457;-63
2023/05/22 00:47:22;;;;;;;3.53;3.33;;;;;;;;;;5072949;28;20917;-63
2023/05/22 00:49:49;;;;;;;4.00;3.70;;;;;;;;;;5073862;28;20493;-63
2023/05/22 00:52:16;;;;;;;3.87;3.67;;;;;;;;;;5073850;28;20450;-63
2023/05/22 00:54:45;;;;;;;6.23;4.03;;;;;;;;;;5073705;28;20479;-64
2023/05/22 00:57:12;;;;;;;6.50;3.57;;;;;;;;;;5073794;28;20451;-63
2023/05/22 00:59:39;;;;;;;4.20;3.80;;;;;;;;;;5073778;28;20447;-64
2023/05/22 01:02:05;;;;;;;4.50;3.80;;;;;;;;;;5073713;28;20856;-64
2023/05/22 01:04:34;;;;;;;4.03;3.70;;;;;;;;;;5073533;28;20453;-63
2023/05/22 01:07:01;;;;;;;4.20;3.70;;;;;;;;;;5073492;28;20478;-64
2023/05/22 01:09:28;;;;;;;3.83;3.40;;;;;;;;;;5073398;28;20451;-64
2023/05/22 01:11:59;;;;;;;4.13;3.73;;;;;;;;;;5073429;28;20547;-64
2023/05/22 01:14:32;;;;;;;3.50;3.20;;;;;;;;;;5073541;28;20448;-63
2023/05/22 01:17:08;;;;;;;4.70;3.30;;;;;;;;;;5073343;28;21038;-63
2023/05/22 01:19:46;;;;;;;4.20;3.90;;;;;;;;;;5073190;28;20445;-64
2023/05/22 01:22:20;;;;;;;4.80;4.40;;;;;;;;;;5073431;28;20481;-64
2023/05/22 01:24:57;;;;;;;4.13;3.80;;;;;;;;;;5073478;28;20449;-64
2023/05/22 01:27:45;;;;;;;4.90;3.83;;;;;;;;;;5073152;28;20478;-63
2023/05/22 01:30:21;;;;;;;3.97;3.50;;;;;;;;;;5055563;28;20456;-64
2023/05/22 01:32:50;;;;;;;7.00;3.40;;;;;;;;;;5073412;28;20445;-64
2023/05/22 01:35:17;;;;;;;4.60;4.20;;;;;;;;;;5073221;28;20542;-63
2023/05/22 01:37:45;;;;;;;5.03;3.53;;;;;;;;;;5073156;28;20451;-64
2023/05/22 01:40:12;;;;;;;3.73;3.43;;;;;;;;;;5073106;28;20454;-63
2023/05/22 01:42:40;;;;;;;3.77;3.20;;;;;;;;;;5072952;28;20453;-64
2023/05/22 01:45:08;;;;;;;3.53;3.33;;;;;;;;;;5073170;28;20934;-64
2023/05/22 01:47:35;;;;;;;3.70;3.40;;;;;;;;;;5072826;28;21088;-63
2023/05/22 01:50:04;;;;;;;3.90;3.60;;;;;;;;;;5072974;28;20501;-63
2023/05/22 01:52:34;;;;;;;3.77;3.57;;;;;;;;;;5073007;28;20504;-63
2023/05/22 01:55:03;;;;;;;4.40;3.50;;;;;;;;;;5072605;28;20494;-63
2023/05/22 01:57:33;;;;;;;11.40;3.73;;;;;;;;;;5072729;28;20486;-63
2023/05/22 02:00:06;;;;;;;4.07;3.67;;;;;;;;;;5073158;28;20449;-63
2023/05/22 02:02:34;;;;;;;5.03;3.43;;;;;;;;;;5072904;28;20465;-63
2023/05/22 02:05:01;;;;;;;4.30;3.80;;;;;;;;;;5072818;28;20548;-63
2023/05/22 02:07:30;;;;;;;4.20;4.00;;;;;;;;;;5072666;28;20511;-63
2023/05/22 02:09:57;;;;;;;4.10;3.70;;;;;;;;;;5072918;28;20450;-63
2023/05/22 02:12:24;;;;;;;8.23;5.37;;;;;;;;;;5072825;28;20445;-64
2023/05/22 02:14:51;;;;;;;5.73;3.73;;;;;;;;;;5072848;28;20856;-63
2023/05/22 02:17:19;;;;;;;6.03;3.63;;;;;;;;;;5072663;28;20544;-63
2023/05/22 02:19:46;;;;;;;4.63;4.20;;;;;;;;;;5072629;28;20540;-63
2023/05/22 02:22:13;;;;;;;4.00;3.70;;;;;;;;;;5072594;28;20461;-64
2023/05/22 02:24:42;;;;;;;4.03;3.73;;;;;;;;;;5072828;28;20484;-64
2023/05/22 02:27:09;;;;;;;4.07;3.73;;;;;;;;;;5072515;28;20973;-63
2023/05/22 02:29:36;;;;;;;4.83;3.83;;;;;;;;;;5072666;28;20621;-63
2023/05/22 02:32:03;;;;;;;8.00;4.40;;;;;;;;;;5072611;28;20544;-63
2023/05/22 02:34:30;;;;;;;3.50;3.30;;;;;;;;;;5072404;28;20848;-64
2023/05/22 02:36:58;;;;;;;4.00;3.70;;;;;;;;;;5072482;28;20462;-63
2023/05/22 02:39:25;;;;;;;4.10;3.80;;;;;;;;;;5072603;28;20472;-64
2023/05/22 02:41:53;;;;;;;3.70;3.40;;;;;;;;;;5072531;28;20541;-63
2023/05/22 02:44:20;;;;;;;7.73;3.90;;;;;;;;;;5072486;28;20453;-63
2023/05/22 02:46:47;;;;;;;3.70;3.50;;;;;;;;;;5072478;28;20453;-63
2023/05/22 02:49:14;;;;;;;4.43;4.03;;;;;;;;;;5072187;28;20486;-63
2023/05/22 02:51:46;;;;;;;4.20;3.80;;;;;;;;;;5072560;28;20882;-64
2023/05/22 02:54:13;;;;;;;4.47;3.63;;;;;;;;;;5072352;28;20503;-63
2023/05/22 02:56:40;;;;;;;4.10;3.70;;;;;;;;;;5072368;28;20807;-63
2023/05/22 02:59:08;;;;;;;7.03;4.13;;;;;;;;;;5072270;28;20532;-63
2023/05/22 03:01:35;;;;;;;4.37;4.07;;;;;;;;;;5072228;28;20470;-64
2023/05/22 03:04:02;;;;;;;3.93;3.63;;;;;;;;;;5072133;28;20468;-63
2023/05/22 03:06:29;;;;;;;9.03;4.50;;;;;;;;;;5072191;28;20500;-63
2023/05/22 03:08:56;;;;;;;4.07;3.63;;;;;;;;;;5072401;28;20490;-63
2023/05/22 03:11:23;;;;;;;5.07;4.53;;;;;;;;;;5075879;28;20450;-63
2023/05/22 03:13:50;;;;;;;4.30;4.00;;;;;;;;;;5075708;28;20486;-63
2023/05/22 03:16:18;;;;;;;4.60;4.20;;;;;;;;;;5075588;28;20898;-64
2023/05/22 03:18:45;;;;;;;4.77;4.37;;;;;;;;;;5075786;28;20480;-64
2023/05/22 03:21:12;;;;;;;4.50;4.20;;;;;;;;;;5075584;28;20449;-63
2023/05/22 03:23:39;;;;;;;4.27;3.97;;;;;;;;;;5075662;28;20451;-63
2023/05/22 03:26:06;;;;;;;4.03;3.73;;;;;;;;;;5075604;28;20816;-63
2023/05/22 03:28:33;;;;;;;4.37;3.90;;;;;;;;;;5075296;28;20579;-63
2023/05/22 03:31:00;;;;;;;9.60;4.37;;;;;;;;;;5075331;28;20861;-63
2023/05/22 03:33:28;;;;;;;6.03;4.03;;;;;;;;;;5075517;28;20818;-64
2023/05/22 03:35:55;;;;;;;4.37;4.00;;;;;;;;;;5075476;28;20805;-63
2023/05/22 03:38:22;;;;;;;4.73;4.37;;;;;;;;;;5075328;28;20462;-63
2023/05/22 03:40:49;;;;;;;6.60;3.90;;;;;;;;;;5075329;28;20453;-63
2023/05/22 03:43:15;;;;;;;5.23;4.07;;;;;;;;;;5075150;28;20450;-63
2023/05/22 03:45:42;;;;;;;4.57;4.27;;;;;;;;;;5075119;28;20446;-64
2023/05/22 03:48:09;;;;;;;4.10;3.80;;;;;;;;;;5075122;28;20848;-63
2023/05/22 03:50:38;;;;;;;4.50;4.10;;;;;;;;;;5075213;28;20790;-63
2023/05/22 03:53:04;;;;;;;5.20;4.17;;;;;;;;;;5074951;28;20991;-63
2023/05/22 03:55:31;;;;;;;5.60;4.40;;;;;;;;;;5074799;28;20484;-63
2023/05/22 03:57:58;;;;;;;5.07;4.57;;;;;;;;;;5074775;28;20461;-63
2023/05/22 04:00:25;;;;;;;10.03;4.20;;;;;;;;;;5075045;28;20451;-63
2023/05/22 04:02:53;;;;;;;5.10;4.30;;;;;;;;;;5074974;28;20817;-64
2023/05/22 04:05:20;;;;;;;4.17;3.87;;;;;;;;;;5074847;28;20883;-63
2023/05/22 04:07:48;;;;;;;7.60;4.17;;;;;;;;;;5074638;28;20473;-63
2023/05/22 04:10:15;;;;;;;4.73;4.30;;;;;;;;;;5074624;28;20754;-63
2023/05/22 04:12:42;;;;;;;6.60;4.57;;;;;;;;;;5074569;28;20456;-63
2023/05/22 04:15:09;;;;;;;4.60;4.23;;;;;;;;;;5074672;28;20449;-63
2023/05/22 04:17:39;;;;;;;4.43;3.80;;;;;;;;;;5074623;28;20537;-63
2023/05/22 04:20:07;;;;;;;6.10;3.93;;;;;;;;;;5074311;28;20940;-63
2023/05/22 04:22:34;;;;;;;5.93;3.57;;;;;;;;;;5074398;28;20449;-63
2023/05/22 04:25:02;;;;;;;4.23;3.93;;;;;;;;;;5074215;28;20446;-63
2023/05/22 04:27:29;;;;;;;9.80;4.50;;;;;;;;;;5074356;28;20451;-63
2023/05/22 04:29:58;;;;;;;4.00;3.60;;;;;;;;;;5074428;28;20863;-63
2023/05/22 04:32:26;;;;;;;4.50;4.10;;;;;;;;;;5074259;28;20600;-63
2023/05/22 04:34:53;;;;;;;5.47;4.60;;;;;;;;;;5074241;28;20449;-63
2023/05/22 04:37:20;;;;;;;4.60;4.20;;;;;;;;;;5074081;28;20860;-63
2023/05/22 04:39:47;;;;;;;5.87;4.50;;;;;;;;;;5073865;28;20453;-63
2023/05/22 04:42:16;;;;;;;9.43;4.97;;;;;;;;;;5074121;28;20460;-63
2023/05/22 04:44:43;;;;;;;5.50;4.50;;;;;;;;;;5074084;28;20499;-63
2023/05/22 04:47:13;;;;;;;5.40;3.90;;;;;;;;;;5073988;28;20506;-63
2023/05/22 04:49:41;;;;;;;4.10;3.80;;;;;;;;;;5074109;28;20988;-63
2023/05/22 04:52:10;;;;;;;4.90;4.50;;;;;;;;;;5073707;28;20482;-63
2023/05/22 04:54:37;;;;;;;6.67;4.93;;;;;;;;;;5073575;28;20981;-63
2023/05/22 04:57:04;;;;;;;5.07;4.53;;;;;;;;;;5073846;28;20557;-63
2023/05/22 04:59:36;;;;;;;5.00;4.53;;;;;;;;;;5073624;28;20548;-63
2023/05/22 05:02:03;;;;;;;4.30;3.97;;;;;;;;;;5073658;28;20461;-63
2023/05/22 05:04:30;;;;;;;4.40;4.07;;;;;;;;;;5073466;28;20883;-63
2023/05/22 05:06:57;;;;;;;5.07;4.67;;;;;;;;;;5073668;28;20454;-62
2023/05/22 05:09:24;;;;;;;5.20;4.80;;;;;;;;;;5073340;28;20486;-63
2023/05/22 05:11:51;;;;;;;5.13;4.10;;;;;;;;;;5073449;28;20506;-63
2023/05/22 05:14:18;;;;;;;5.30;4.90;;;;;;;;;;5073477;28;20457;-62
2023/05/22 05:16:46;;;;;;;6.67;4.27;;;;;;;;;;5073366;28;20814;-63
2023/05/22 05:19:14;;;;;;;5.60;5.00;;;;;;;;;;5073125;28;20826;-63
2023/05/22 05:21:41;;;;;;;5.23;4.30;;;;;;;;;;5073560;28;20456;-63
2023/05/22 05:24:08;;;;;;;4.80;4.37;;;;;;;;;;5073274;28;20535;-63
2023/05/22 05:26:35;;;;;;;7.23;4.80;;;;;;;;;;5073008;28;20537;-62
2023/05/22 05:29:02;;;;;;;5.63;3.87;;;;;;;;;;5072876;28;20476;-63
2023/05/22 05:31:29;;;;;;;5.40;4.23;;;;;;;;;;5072819;28;20461;-63
2023/05/22 05:33:57;;;;;;;4.37;4.07;;;;;;;;;;5072567;28;20542;-63
2023/05/22 05:36:24;;;;;;;4.90;4.50;;;;;;;;;;5073171;28;20953;-63
2023/05/22 05:38:51;;;;;;;9.67;5.10;;;;;;;;;;5072987;28;20453;-63
2023/05/22 05:41:18;;;;;;;4.57;4.00;;;;;;;;;;5072889;28;20450;-63
2023/05/22 05:43:45;;;;;;;5.00;4.53;;;;;;;;;;5072925;28;20805;-63
2023/05/22 05:46:12;;;;;;;5.23;4.37;;;;;;;;;;5072795;28;20450;-63
2023/05/22 05:48:39;;;;;;;4.53;3.77;;;;;;;;;;5072671;28;20478;-63
2023/05/22 05:51:07;;;;;;;5.60;4.60;;;;;;;;;;5072974;28;20508;-63
2023/05/22 05:53:36;;;;;;;7.77;4.87;;;;;;;;;;5072758;28;20525;-63
2023/05/22 05:56:02;;;;;;;6.33;4.63;;;;;;;;;;5072779;28;20933;-63
2023/05/22 05:58:30;;;;;;;7.20;5.23;;;;;;;;;;5072666;28;20493;-63
2023/05/22 06:00:57;;;;;;;6.10;5.60;;;;;;;;;;5072570;28;20455;-63
2023/05/22 06:03:24;;;;;;;5.57;4.60;;;;;;;;;;5072814;28;20553;-63
2023/05/22 06:05:51;;;;;;;7.70;4.40;;;;;;;;;;5072800;28;20460;-63
2023/05/22 06:08:20;;;;;;;5.13;4.73;;;;;;;;;;5072739;28;20485;-63
2023/05/22 06:10:47;;;;;;;4.83;4.40;;;;;;;;;;5072833;28;20513;-63
2023/05/22 06:13:14;;;;;;;4.83;4.43;;;;;;;;;;5072498;28;20481;-63
2023/05/22 06:15:41;;;;;;;7.73;4.90;;;;;;;;;;5072552;28;20540;-63
2023/05/22 06:18:08;;;;;;;7.40;5.03;;;;;;;;;;5072633;28;20545;-63
2023/05/22 06:20:35;;;;;;;4.63;4.23;;;;;;;;;;5072710;28;20453;-63
2023/05/22 06:23:02;;;;;;;5.80;5.20;;;;;;;;;;5072377;28;20450;-63
2023/05/22 06:25:30;;;;;;;4.97;4.47;;;;;;;;;;5072535;28;20456;-63
2023/05/22 06:27:57;;;;;;;4.77;4.40;;;;;;;;;;5072283;28;20949;-63
2023/05/22 06:30:25;;;;;;;5.90;4.57;;;;;;;;;;5072532;28;20572;-63
2023/05/22 06:32:52;;;;;;;6.83;4.50;;;;;;;;;;5072547;28;20450;-63
2023/05/22 06:35:19;;;;;;;5.57;4.50;;;;;;;;;;5072375;28;20449;-62
2023/05/22 06:37:46;;;;;;;5.20;4.80;;;;;;;;;;5072386;28;20477;-63
2023/05/22 06:40:15;;;;;;;5.97;5.37;;;;;;;;;;5072316;28;20451;-63
2023/05/22 06:42:44;;;;;;;4.43;3.97;;;;;;;;;;5072215;28;20456;-63
2023/05/22 06:45:18;;;;;;;7.27;4.77;;;;;;;;;;5074437;28;20450;-63
2023/05/22 06:47:45;;;;;;;6.27;4.50;;;;;;;;;;5076217;28;20953;-63
2023/05/22 06:50:16;;;;;;;6.23;5.10;;;;;;;;;;5076402;28;20485;-63
2023/05/22 06:52:43;;;;;;;6.10;4.90;;;;;;;;;;5076152;28;20462;-63
2023/05/22 06:55:10;;;;;;;8.03;5.07;;;;;;;;;;5075798;28;20477;-63
2023/05/22 06:57:37;;;;;;;5.70;5.20;;;;;;;;;;5076205;28;21035;-63
2023/05/22 07:00:11;;;;;;;4.80;4.40;;;;;;;;;;5075956;28;20622;-63
2023/05/22 07:02:38;;;;;;;4.87;4.47;;;;;;;;;;5075945;28;20508;-63
2023/05/22 07:05:08;;;;;;;6.87;4.70;;;;;;;;;;5073945;28;20531;-62
2023/05/22 07:07:37;;;;;;;5.23;4.40;;;;;;;;;;5075632;28;20458;-59
2023/05/22 07:10:06;;;;;;;4.97;4.53;;;;;;;;;;5077832;28;20489;-60
2023/05/22 07:12:33;;;;;;;5.03;4.37;;;;;;;;;;5075729;28;20457;-58
2023/05/22 07:15:05;;;;;;;5.40;5.00;;;;;;;;;;5075612;28;20454;-59
2023/05/22 07:17:40;;;;;;;4.70;4.40;;;;;;;;;;5075387;28;20460;-58
2023/05/22 07:20:08;;;;;;;4.17;3.87;;;;;;;;;;5075451;28;20497;-59
2023/05/22 07:22:39;;;;;;;5.67;5.10;;;;;;;;;;5075477;28;20463;-60
2023/05/22 07:25:06;;;;;;;5.67;4.10;;;;;;;;;;5075589;28;20860;-58
2023/05/22 07:27:33;;;;;;;4.70;4.40;;;;;;;;;;5075311;28;20884;-59
2023/05/22 07:30:04;;;;;;;4.90;4.50;;;;;;;;;;5075157;28;20487;-60
2023/05/22 07:32:31;;;;;;;4.23;3.93;;;;;;;;;;5075184;28;20506;-58
2023/05/22 07:35:01;;;;;;;6.50;5.17;;;;;;;;;;5075165;28;21033;-58
2023/05/22 07:37:28;;;;;;;6.20;4.40;;;;;;;;;;5075346;28;20447;-58
2023/05/22 07:39:55;;;;;;;5.43;4.83;;;;;;;;;;5075207;28;20540;-56
2023/05/22 07:42:22;;;;;;;5.83;4.67;;;;;;;;;;5075165;28;20483;-58
2023/05/22 07:44:49;;;;;;;5.30;4.57;;;;;;;;;;5074930;28;20479;-59
2023/05/22 07:47:16;;;;;;;4.97;4.57;;;;;;;;;;5074873;28;20943;-60
2023/05/22 07:49:43;;;;;;;4.80;4.50;;;;;;;;;;5074991;28;20823;-61
2023/05/22 07:52:11;;;;;;;5.33;4.83;;;;;;;;;;5075074;28;20614;-61
2023/05/22 07:54:38;;;;;;;4.90;4.50;;;;;;;;;;5074575;28;20471;-58
2023/05/22 07:57:06;;;;;;;5.53;4.20;;;;;;;;;;5074842;28;20454;-60
2023/05/22 07:59:34;;;;;;;5.30;4.60;;;;;;;;;;5074721;28;20451;-60
2023/05/22 08:02:01;;;;;;;4.40;4.00;;;;;;;;;;5074784;28;20451;-60
2023/05/22 08:04:29;;;;;;;4.80;4.40;;;;;;;;;;5074751;28;20793;-60
2023/05/22 08:06:58;;;;;;;5.90;5.27;;;;;;;;;;5074688;28;20959;-60
2023/05/22 08:09:26;;;;;;;4.70;4.30;;;;;;;;;;5074481;28;20448;-60
2023/05/22 08:11:54;;;;;;;7.63;4.30;;;;;;;;;;5074462;28;20451;-60
2023/05/22 08:14:22;;;;;;;5.20;4.70;;;;;;;;;;5074339;28;20443;-60
2023/05/22 08:16:48;;;;;;;6.07;4.10;;;;;;;;;;5074664;28;20736;-60
2023/05/22 08:19:15;;;;;;;4.67;4.27;;;;;;;;;;5074485;28;20455;-58
2023/05/22 08:21:42;;;;;;;4.73;4.37;;;;;;;;;;5074386;28;20819;-59
2023/05/22 08:24:09;;;;;;;4.63;4.23;;;;;;;;;;5074075;28;20534;-56
2023/05/22 08:26:39;;;;;;;4.10;3.73;;;;;;;;;;5074223;28;20538;-58
2023/05/22 08:29:06;;;;;;;9.73;4.63;;;;;;;;;;5073980;28;20486;-61
2023/05/22 08:31:34;;;;;;;5.47;4.13;;;;;;;;;;5074112;28;20483;-59
2023/05/22 08:34:02;;;;;;;4.70;4.00;;;;;;;;;;5088775;28;20447;-55
2023/05/22 08:36:32;;;;;;;5.80;3.90;;;;;;;;;;5072783;28;20450;-58
2023/05/22 08:39:00;;;;;;;5.90;3.47;;;;;;;;;;5072790;28;20461;-65
2023/05/22 08:41:27;;;;;;;4.50;4.00;;;;;;;;;;5073138;28;20189;-58
2023/05/22 08:43:55;;;;;;;5.67;3.87;;;;;;;;;;5073843;28;20450;-58
2023/05/22 08:46:24;;;;;;;8.47;3.97;;;;;;;;;;5073094;28;20480;-60
2023/05/22 08:48:52;;;;;;;4.63;4.00;;;;;;;;;;5073624;28;20470;-61
2023/05/22 08:51:19;;;;;;;3.70;3.40;;;;;;;;;;5073381;28;20487;-58
2023/05/22 08:53:50;;;;;;;9.30;3.70;;;;;;;;;;5072588;28;20471;-60
2023/05/22 08:56:17;;;;;;;3.80;3.40;;;;;;;;;;5073129;28;20452;-61
2023/05/22 08:58:46;;;;;;;5.63;3.90;;;;;;;;;;5073728;28;20918;-60
2023/05/22 09:01:14;;;;;;;4.30;3.90;;;;;;;;;;5073564;28;20650;-61
2023/05/22 09:03:43;;;;;;;6.13;3.30;;;;;;;;;;5073395;28;20807;-59
2023/05/22 09:06:11;;;;;;;6.03;3.83;;;;;;;;;;5073219;28;21026;-58
2023/05/22 09:08:38;;;;;;;3.40;3.10;;;;;;;;;;5072508;28;20455;-58
2023/05/22 09:11:05;;;;;;;6.80;3.77;;;;;;;;;;5073365;28;20863;-56
2023/05/22 09:13:32;;;;;;;3.43;3.13;;;;;;;;;;5073338;28;20456;-54
2023/05/22 09:16:00;;;;;;;6.00;3.80;;;;;;;;;;5073216;28;20447;-56
2023/05/22 09:18:29;;;;;;;7.43;3.20;;;;;;;;;;5073119;28;20440;-58
2023/05/22 09:20:57;;;;;;;6.23;3.40;;;;;;;;;;5072967;28;20545;-57
2023/05/22 09:23:25;;;;;;;3.60;3.30;;;;;;;;;;5073074;28;20501;-59
2023/05/22 09:25:54;;;;;;;3.40;3.10;;;;;;;;;;5072994;28;20448;-58
2023/05/22 09:28:21;;;;;;;2.60;2.23;;;;;;;;;;5073019;28;20448;-58
2023/05/22 09:30:51;;;;;;;4.87;3.00;;;;;;;;;;5072606;28;20994;-58
2023/05/22 09:33:17;;;;;;;4.40;3.20;;;;;;;;;;5072752;28;20871;-58
2023/05/22 09:35:47;;;;;;;4.70;3.17;;;;;;;;;;5072966;28;20444;-57
2023/05/22 09:38:14;;;;;;;3.40;2.97;;;;;;;;;;5072867;28;20448;-58
2023/05/22 09:40:41;;;;;;;10.87;3.93;;;;;;;;;;5072940;28;20497;-58
2023/05/22 09:43:08;;;;;;;5.10;3.40;;;;;;;;;;5072857;28;20498;-58
2023/05/22 09:45:36;;;;;;;2.97;2.67;;;;;;;;;;5072823;28;20455;-62
2023/05/22 09:48:04;;;;;;;3.50;3.20;;;;;;;;;;5072499;28;20542;-57
2023/05/22 09:50:31;;;;;;;3.40;3.10;;;;;;;;;;5072572;28;21006;-60
2023/05/22 09:53:00;;;;;;;2.77;2.63;;;;;;;;;;5072730;28;20526;-58
2023/05/22 09:55:27;;;;;;;3.20;3.00;;;;;;;;;;5072416;28;20476;-60
2023/05/22 09:57:55;;;;;;;2.93;2.70;;;;;;;;;;5072450;28;20452;-58
2023/05/22 10:00:22;;;;;;;5.30;2.90;;;;;;;;;;5072779;28;20866;-58
2023/05/22 10:02:53;;;;;;;3.67;3.03;;;;;;;;;;5072863;28;20503;-58
2023/05/22 10:05:21;;;;;;;5.80;2.80;;;;;;;;;;5072754;28;20470;-56
2023/05/22 10:07:50;;;;;;;3.50;3.20;;;;;;;;;;5072647;28;20443;-57
2023/05/22 10:10:20;;;;;;;3.17;2.97;;;;;;;;;;5052974;28;20566;-57
2023/05/22 10:12:51;;;;;;;4.10;3.03;;;;;;;;;;5052563;28;20488;-58
2023/05/22 10:15:18;;;;;;;2.83;2.63;;;;;;;;;;5052680;28;20441;-57
2023/05/22 10:17:45;;;;;;;5.90;3.40;;;;;;;;;;5051558;28;20493;-59
2023/05/22 10:20:13;;;;;;;5.53;3.20;;;;;;;;;;5055471;28;20458;-59
2023/05/22 10:22:40;;;;;;;3.23;3.03;;;;;;;;;;5056384;28;20194;-59
2023/05/22 10:25:08;;;;;;;4.60;3.10;;;;;;;;;;5056501;28;20452;-59
2023/05/22 10:27:37;;;;;;;13.50;3.60;;;;;;;;;;5056293;28;20440;-61
2023/05/22 10:30:10;;;;;;;5.40;3.30;;;;;;;;;;5056299;28;20889;-59
2023/05/22 10:32:40;;;;;;;4.60;3.13;;;;;;;;;;5056423;28;20811;-60
2023/05/22 10:35:12;;;;;;;3.23;2.93;;;;;;;;;;5056237;28;20548;-56
2023/05/22 10:37:46;;;;;;;3.80;2.73;;;;;;;;;;5056240;28;20455;-56
2023/05/22 10:40:13;;;;;;;3.47;3.17;;;;;;;;;;5056154;28;20462;-56
2023/05/22 10:42:44;;;;;;;4.13;2.80;;;;;;;;;;5056201;28;20537;-57
2023/05/22 10:45:11;;;;;;;3.20;2.90;;;;;;;;;;5056345;28;20509;-58
2023/05/22 10:47:38;;;;;;;3.13;2.92;;;;;;;;;;5056069;28;20964;-56
2023/05/22 10:50:07;;;;;;;3.30;3.10;;;;;;;;;;5056007;28;20201;-57
2023/05/22 10:52:34;;;;;;;8.33;3.33;;;;;;;;;;5055827;28;20480;-57
2023/05/22 10:55:01;;;;;;;3.50;3.00;;;;;;;;;;5055760;28;20498;-51
2023/05/22 10:57:33;;;;;;;4.03;3.10;;;;;;;;;;5056092;28;20453;-56
2023/05/22 11:00:08;;;;;;;3.53;2.87;;;;;;;;;;5056139;28;21017;-58
2023/05/22 11:02:39;;;;;;;3.50;2.77;;;;;;;;;;5055690;28;20503;-58
2023/05/22 11:05:26;;;;;;;3.40;3.10;;;;;;;;;;5055312;28;20455;-55
2023/05/22 11:08:09;;;;;;;4.40;2.70;;;;;;;;;;5055457;28;20831;-57
2023/05/22 11:10:51;;;;;;;2.97;2.77;;;;;;;;;;5055660;28;20447;-57
2023/05/22 11:13:18;;;;;;;8.77;2.93;;;;;;;;;;5055493;28;20540;-58
2023/05/22 11:15:47;;;;;;;3.03;2.83;;;;;;;;;;5055770;28;20441;-58
2023/05/22 11:18:14;;;;;;;4.53;2.70;;;;;;;;;;5055134;28;20956;-57
2023/05/22 11:20:41;;;;;;;3.17;2.83;;;;;;;;;;5055525;28;20460;-58
2023/05/22 11:23:08;;;;;;;2.87;2.67;;;;;;;;;;5055403;28;20506;-58
2023/05/22 11:25:37;;;;;;;3.63;2.70;;;;;;;;;;5055486;28;20480;-59
2023/05/22 11:28:05;;;;;;;3.70;2.83;;;;;;;;;;5055139;28;20532;-58
2023/05/22 11:30:32;;;;;;;3.83;2.83;;;;;;;;;;5054425;28;20453;-58
2023/05/22 11:33:00;;;;;;;3.03;2.80;;;;;;;;;;5055214;28;20947;-59
2023/05/22 11:35:28;;;;;;;2.87;2.67;;;;;;;;;;5055329;28;20551;-59
2023/05/22 11:37:55;;;;;;;3.33;3.03;;;;;;;;;;5055034;28;20841;-58
2023/05/22 11:40:24;;;;;;;3.10;2.90;;;;;;;;;;5055032;28;20461;-58
2023/05/22 11:42:51;;;;;;;5.20;3.20;;;;;;;;;;5055014;28;20445;-59
2023/05/22 11:45:18;;;;;;;3.30;2.83;;;;;;;;;;5055324;28;20830;-59
2023/05/22 11:47:45;;;;;;;3.97;2.77;;;;;;;;;;5055052;28;20536;-59
2023/05/22 11:50:14;;;;;;;3.57;2.97;;;;;;;;;;5054979;28;20448;-57
2023/05/22 11:52:42;;;;;;;4.67;2.30;;;;;;;;;;5054821;28;20546;-62
2023/05/22 11:55:10;;;;;;;3.43;2.80;;;;;;;;;;5054583;28;20564;-58
2023/05/22 11:57:38;;;;;;;2.73;2.53;;;;;;;;;;5055675;28;20452;-58
2023/05/22 12:00:07;;;;;;;2.73;2.53;;;;;;;;;;5054790;28;20982;-59
2023/05/22 12:02:34;;;;;;;4.20;3.10;;;;;;;;;;5054813;28;20461;-59
2023/05/22 12:05:01;;;;;;;28.17;3.23;;;;;;;;;;5054751;28;20460;-59
2023/05/22 12:07:30;;;;;;;3.10;2.90;;;;;;;;;;5054398;28;20460;-59
2023/05/22 12:09:57;;;;;;;3.00;2.80;;;;;;;;;;5054702;28;20451;-59
2023/05/22 12:12:24;;;;;;;3.07;2.47;;;;;;;;;;5054443;28;21003;-59
2023/05/22 12:14:51;;;;;;;4.93;2.80;;;;;;;;;;5054263;28;20448;-59
2023/05/22 12:17:18;;;;;;;6.33;2.90;;;;;;;;;;5054533;28;20535;-59
2023/05/22 12:19:46;;;;;;;3.53;2.47;;;;;;;;;;5054410;28;20456;-59
2023/05/22 12:22:13;;;;;;;3.30;2.50;;;;;;;;;;5054110;28;20453;-59
2023/05/22 12:24:44;;;;;;;4.67;3.50;;;;;;;;;;5054560;28;20463;-59
2023/05/22 12:27:12;;;;;;;3.57;3.27;;;;;;;;;;5054523;28;20456;-59
2023/05/22 12:29:39;;;;;;;4.03;2.70;;;;;;;;;;5054413;28;20449;-59
2023/05/22 12:32:08;;;;;;;3.20;2.90;;;;;;;;;;5054399;28;20484;-59
2023/05/22 12:34:36;;;;;;;7.50;3.60;;;;;;;;;;5054186;28;20488;-59
2023/05/22 12:37:03;;;;;;;7.97;3.07;;;;;;;;;;5054223;28;20437;-59
2023/05/22 12:39:30;;;;;;;2.30;2.10;;;;;;;;;;5054286;28;20453;-59
2023/05/22 12:41:58;;;;;;;3.57;3.27;;;;;;;;;;5054045;28;20555;-59
2023/05/22 12:44:26;;;;;;;2.90;2.70;;;;;;;;;;5054124;28;20855;-59
2023/05/22 12:46:53;;;;;;;3.83;2.80;;;;;;;;;;5053996;28;20556;-59
2023/05/22 12:49:20;;;;;;;2.57;2.37;;;;;;;;;;5053772;28;20449;-58
2023/05/22 12:51:47;;;;;;;4.20;3.00;;;;;;;;;;5053883;28;20828;-58
2023/05/22 12:54:14;;;;;;;3.27;2.97;;;;;;;;;;5053801;28;20483;-58
2023/05/22 12:56:41;;;;;;;3.20;2.50;;;;;;;;;;5053801;28;20499;-58
2023/05/22 12:59:09;;;;;;;3.13;2.87;;;;;;;;;;5053665;28;20876;-59
2023/05/22 13:01:36;;;;;;;4.40;2.80;;;;;;;;;;5053531;28;20552;-60
2023/05/22 13:04:03;;;;;;;5.60;3.20;;;;;;;;;;5053882;28;20471;-59
2023/05/22 13:06:31;;;;;;;5.10;3.40;;;;;;;;;;5053796;28;20455;-59
2023/05/22 13:08:57;;;;;;;3.07;2.87;;;;;;;;;;5053638;28;21039;-59
2023/05/22 13:11:25;;;;;;;3.37;3.07;;;;;;;;;;5053595;28;20483;-60
2023/05/22 13:13:52;;;;;;;5.10;2.60;;;;;;;;;;5053546;28;20457;-60
2023/05/22 13:16:20;;;;;;;2.97;2.77;;;;;;;;;;5053456;28;20464;-60
2023/05/22 13:18:47;;;;;;;3.30;3.00;;;;;;;;;;5053563;28;20452;-61
2023/05/22 13:21:14;;;;;;;32.87;5.13;;;;;;;;;;5053558;28;20491;-60
2023/05/22 13:23:41;;;;;;;3.33;3.13;;;;;;;;;;5053573;28;20453;-60
2023/05/22 13:26:08;;;;;;;3.30;2.63;;;;;;;;;;5053331;28;20480;-60
2023/05/22 13:28:35;;;;;;;5.00;2.50;;;;;;;;;;5053129;28;20485;-60
2023/05/22 13:31:02;;;;;;;3.10;2.80;;;;;;;;;;5053008;28;20544;-59
2023/05/22 13:33:30;;;;;;;2.80;2.60;;;;;;;;;;5053285;28;20819;-60
2023/05/22 13:35:57;;;;;;;4.13;3.37;;;;;;;;;;5053310;28;20449;-60
2023/05/22 13:38:24;;;;;;;2.73;2.63;;;;;;;;;;5053056;28;20457;-61
2023/05/22 13:40:51;;;;;;;3.80;3.10;;;;;;;;;;5053209;28;20453;-60
2023/05/22 13:43:18;;;;;;;3.80;2.93;;;;;;;;;;5053100;28;20789;-60
2023/05/22 13:45:45;;;;;;;3.53;3.10;;;;;;;;;;5053132;28;20463;-59
2023/05/22 13:48:12;;;;;;;11.00;3.60;;;;;;;;;;5052871;28;20455;-60
2023/05/22 13:50:41;;;;;;;5.20;2.63;;;;;;;;;;5052975;28;20519;-59
2023/05/22 13:53:08;;;;;;;4.00;3.20;;;;;;;;;;5052358;28;20826;-60
2023/05/22 13:55:34;;;;;;;6.60;3.10;;;;;;;;;;5052667;28;20483;-60
2023/05/22 13:58:01;;;;;;;3.10;2.80;;;;;;;;;;5052505;28;20536;-60
2023/05/22 14:00:28;;;;;;;3.03;2.83;;;;;;;;;;5052795;28;20487;-60
2023/05/22 14:02:55;;;;;;;3.50;3.20;;;;;;;;;;5052721;28;20453;-60
2023/05/22 14:05:22;;;;;;;5.70;2.77;;;;;;;;;;5052639;28;20539;-60
2023/05/22 14:07:50;;;;;;;4.63;3.90;;;;;;;;;;5052569;28;20535;-60
2023/05/22 14:10:17;;;;;;;3.40;3.17;;;;;;;;;;5052574;28;20539;-60
2023/05/22 14:12:45;;;;;;;7.50;2.90;;;;;;;;;;5052565;28;20813;-60
2023/05/22 14:15:14;;;;;;;4.13;3.07;;;;;;;;;;5052711;28;20476;-60
2023/05/22 14:17:41;;;;;;;4.13;2.97;;;;;;;;;;5052686;28;20471;-60
2023/05/22 14:20:09;;;;;;;3.60;3.30;;;;;;;;;;5052417;28;20483;-60
2023/05/22 14:22:36;;;;;;;3.97;3.40;;;;;;;;;;5052518;28;20479;-60
2023/05/22 14:25:05;;;;;;;4.50;2.87;;;;;;;;;;5052357;28;20943;-59
2023/05/22 14:27:32;;;;;;;6.17;2.93;;;;;;;;;;5052432;28;20888;-60
2023/05/22 14:29:59;;;;;;;5.77;3.47;;;;;;;;;;5052361;28;20532;-60
2023/05/22 14:32:26;;;;;;;5.33;3.20;;;;;;;;;;5052392;28;20481;-59
2023/05/22 14:34:53;;;;;;;5.33;2.73;;;;;;;;;;5052524;28;20536;-60
2023/05/22 14:37:20;;;;;;;2.93;2.73;;;;;;;;;;5052405;28;20452;-59
2023/05/22 14:39:47;;;;;;;3.10;2.80;;;;;;;;;;5052278;28;20452;-60
2023/05/22 14:42:15;;;;;;;5.40;2.60;;;;;;;;;;5052282;28;20455;-60
2023/05/22 14:44:42;;;;;;;4.13;3.73;;;;;;;;;;5052452;28;20880;-60
2023/05/22 14:47:09;;;;;;;4.63;4.20;;;;;;;;;;5052251;28;20473;-59